Terminal Aerodrome Forecast
Issued by NWS

Current Version | Previous Version | Text Only | Print | Product List | Glossary On
Versions: 1 2 3 4 5 6 7 8 9 10 11 12 13 14 15
075
FTUS45 KTFX 262339
TAFBZN
TAF
KBZN 262339Z 2700/2724 VRB06KT P6SM VCSH SCT030 BKN060
     FM270300 VRB06KT P6SM SCT030 BKN070
     FM271500 VRB06KT P6SM -SHRA SCT020 BKN040=

USA.gov is the U.S. government's official web portal to all federal, state and local government web resources and services.